Latest Weather Observations for Halls Creek

IDW60801

Issued at 7:03 pm WST Wednesday 29 March 2017 (issued every 30 minutes, with the page automatically refreshed every 10 minutes)

About weather observations | Map of weather stations | Latest weather observations for WA | Other Formats
Station Details ID: 002079 Name: HALLS CREEK AIRPORT Lat: -18.23 Lon: 127.67 Height: 409.4 m
Data from the previous 72 hours. | See also: Recent months at Halls Creek
Date/Time
WST
Temp
°C
App
Temp
°C
Dew
Point
°C
Rel
Hum
%
Delta-T
°C
Wind Press
QNH
hPa
Press
MSL
hPa
Rain since
9am
mm
Dir  Spd
km/h
Gust
km/h
Spd
kts
Gust
kts
29/07:00pm 29.5 32.9 22.0 64 5.1 SW 7 9 4 5 1011.0 1007.9 -
29/06:30pm 30.1 33.9 22.8 65 5.1 WSW 7 9 4 5 1010.6 1007.5 -
29/06:00pm 30.7 34.1 22.0 59 6.0 SW 7 9 4 5 1010.1 1007.0 -
29/05:30pm 32.5 35.9 22.0 54 7.2 SSW 7 9 4 5 1009.2 1006.1 -
29/05:00pm 34.6 37.9 22.6 49 8.4 SSW 9 11 5 6 1008.7 1005.6 -
29/04:30pm 34.9 36.0 19.7 41 10.2 SSW 13 17 7 9 1008.5 1005.4 -
29/04:00pm 35.3 36.5 20.0 40 10.4 SSW 13 17 7 9 1008.5 1005.4 -
29/03:30pm 35.4 37.4 21.6 44 9.5 SW 13 22 7 12 1008.3 1005.2 -
29/03:00pm 35.4 37.3 21.3 44 9.7 WSW 13 20 7 11 1008.7 1005.6 -
29/02:30pm 35.4 36.9 21.3 44 9.7 SSW 15 22 8 12 1008.9 1005.8 -
29/01:30pm 35.6 37.0 21.8 44 9.6 SSW 17 24 9 13 1009.5 1006.4 0.0
29/01:00pm 34.4 37.7 22.5 50 8.3 SSW 9 20 5 11 1010.3 1007.2 0.0
29/12:30pm 34.7 37.0 22.1 48 8.7 SW 13 20 7 11 1010.5 1007.4 0.0
29/12:00pm 34.5 36.9 22.9 51 8.1 SW 15 24 8 13 1010.6 1007.5 0.0
29/11:30am 33.5 36.3 22.3 52 7.8 SSW 11 20 6 11 1011.3 1008.2 0.0
29/11:00am 33.2 35.9 22.9 54 7.2 SSW 13 20 7 11 1011.8 1008.7 0.0
29/10:30am 32.7 34.8 23.1 57 6.7 SSW 17 22 9 12 1012.3 1009.3 0.0
29/10:00am 32.7 35.8 23.6 58 6.4 SSW 13 24 7 13 1012.7 1009.6 0.0
29/09:30am 31.5 34.5 23.3 61 5.7 SW 13 30 7 16 1012.8 1009.7 0.0
29/09:00am 31.3 35.2 24.2 66 5.0 SSW 11 15 6 8 1012.8 1009.7 0.6
29/08:30am 30.1 34.0 24.3 71 4.1 SSW 11 20 6 11 1013.0 1009.9 0.6
29/08:00am 27.0 31.2 24.1 84 2.0 SSW 9 13 5 7 1012.9 1009.8 0.6
29/07:30am 26.4 29.9 23.5 84 2.0 SW 11 15 6 8 1012.8 1009.7 0.6
29/07:00am 26.2 30.2 23.1 83 2.1 SW 7 9 4 5 1012.6 1009.5 0.6
29/06:30am 25.5 28.8 21.4 78 2.8 SW 6 9 3 5 1012.3 1009.3 0.6
29/06:00am 24.6 27.9 21.9 85 1.8 SW 7 9 4 5 1011.9 1008.8 0.6
29/05:30am 24.5 28.0 22.2 87 1.6 SW 7 11 4 6 1011.4 1008.3 0.6
29/05:00am 24.8 28.5 23.2 91 1.1 W 9 11 5 6 1010.9 1007.8 0.6
29/04:30am 24.9 29.4 23.7 93 0.8 W 6 7 3 4 1010.6 1007.5 0.6
29/04:00am 25.2 29.6 23.8 92 1.0 SW 7 7 4 4 1010.6 1007.5 0.6
29/03:30am 25.2 29.2 23.8 92 1.0 WSW 9 11 5 6 1010.6 1007.5 0.6
29/03:00am 25.0 29.4 23.8 93 0.8 SW 7 9 4 5 1010.3 1007.2 0.6
29/02:30am 25.4 30.2 24.2 93 0.8 SSW 6 7 3 4 1010.2 1007.1 0.6
29/02:00am 25.3 30.1 24.1 93 0.8 WSW 6 9 3 5 1010.1 1007.0 0.6
29/01:30am 25.4 29.9 24.0 92 1.0 W 7 9 4 5 1010.2 1007.1 0.6
29/01:00am 25.6 31.8 24.6 94 0.7 CALM 0 0 0 0 1010.4 1007.3 0.6
29/12:30am 25.8 32.0 24.6 93 0.8 CALM 0 0 0 0 1010.5 1007.4 0.6
29/12:00am 25.9 30.9 24.5 92 1.0 SE 6 6 3 3 1010.9 1007.8 0.6
 
Date/Time
WST
Temp
°C
App
Temp
°C
Dew
Point
°C
Rel
Hum
%
Delta-T
°C
Wind Press
QNH
hPa
Press
MSL
hPa
Rain since
9am
mm
Dir  Spd
km/h
Gust
km/h
Spd
kts
Gust
kts
28/11:30pm 26.1 32.4 24.7 92 1.0 CALM 0 0 0 0 1011.2 1008.1 0.6
28/11:00pm 26.3 32.3 24.3 89 1.4 CALM 0 0 0 0 1011.3 1008.2 0.6
28/10:30pm 26.3 32.1 24.0 87 1.6 CALM 0 0 0 0 1011.6 1008.5 0.6
28/10:00pm 26.5 32.5 24.3 88 1.5 CALM 0 0 0 0 1011.8 1008.7 0.6
28/09:30pm 26.7 32.2 24.0 85 1.9 NE 2 6 1 3 1011.8 1008.7 0.6
28/09:00pm 26.5 31.0 23.6 84 2.0 NNE 6 9 3 5 1012.0 1009.0 0.6
28/08:30pm 26.6 31.0 23.5 83 2.2 W 6 7 3 4 1012.0 1009.0 0.6
28/08:00pm 26.5 31.9 23.2 82 2.3 CALM 0 0 0 0 1011.8 1008.7 0.6
28/07:30pm 27.0 30.2 23.0 79 2.8 WSW 11 15 6 8 1011.3 1008.2 0.6
28/07:00pm 26.7 30.5 23.4 82 2.3 SW 9 13 5 7 1010.8 1007.7 0.6
28/06:30pm 26.5 29.8 22.6 79 2.7 WSW 9 11 5 6 1010.4 1007.3 0.6
28/06:00pm 26.6 29.8 22.4 78 2.9 SW 9 13 5 7 1010.3 1007.2 0.6
28/05:30pm 26.4 29.3 22.5 79 2.7 SW 11 15 6 8 1009.7 1006.6 0.6
28/05:00pm 25.7 29.2 22.8 84 2.0 WSW 9 11 5 6 1009.3 1006.2 0.6
28/04:30pm 28.3 27.2 20.3 62 5.3 ESE 26 35 14 19 1009.2 1006.1 0.0
28/04:08pm 29.3 30.1 20.7 59 5.8 ESE 17 52 9 28 1009.7 1006.6 0.0
28/04:07pm 30.0 31.8 21.1 59 6.0 SE 13 41 7 22 1009.7 1006.6 0.0
28/04:00pm 33.0 36.2 22.4 53 7.4 S 9 15 5 8 1009.1 1006.0 0.0
28/03:30pm 33.5 35.7 22.6 53 7.6 S 15 20 8 11 1009.1 1006.0 0.0
28/03:00pm 34.3 37.5 21.7 47 8.7 WNW 7 11 4 6 1009.1 1006.0 0.0
28/02:30pm 33.4 36.4 21.2 48 8.3 WNW 7 13 4 7 1009.3 1006.2 0.0
28/02:00pm 33.1 35.9 21.6 51 7.9 W 9 13 5 7 1009.6 1006.5 0.0
28/01:30pm 33.3 36.5 22.4 52 7.6 WNW 9 13 5 7 1010.2 1007.1 0.0
28/01:00pm 32.9 37.1 22.4 54 7.3 WSW 4 9 2 5 1010.6 1007.5 0.0
28/12:30pm 31.8 35.6 22.8 59 6.3 SW 7 19 4 10 1011.1 1008.0 0.0
28/12:00pm 31.5 35.0 23.6 63 5.6 WSW 11 19 6 10 1011.5 1008.4 0.0
28/11:30am 30.9 34.7 23.5 64 5.2 SW 9 19 5 10 1012.0 1009.0 0.0
28/11:00am 30.8 33.9 23.5 65 5.1 SSW 13 20 7 11 1012.6 1009.5 0.0
28/10:30am 30.3 34.4 24.0 69 4.4 SW 9 17 5 9 1013.1 1010.0 0.0
28/10:00am 29.2 33.3 23.9 73 3.7 WSW 9 15 5 8 1013.4 1010.3 0.0
28/09:30am 28.8 31.1 22.8 70 4.1 SSW 15 19 8 10 1013.7 1010.6 0.0
28/09:00am 28.1 31.9 24.1 79 2.8 SW 11 15 6 8 1013.6 1010.5 0.0
28/08:30am 26.3 29.9 23.0 82 2.3 WSW 9 15 5 8 1013.5 1010.4 0.0
28/08:00am 25.7 29.8 23.2 86 1.7 WSW 7 13 4 7 1013.3 1010.2 0.0
28/07:30am 25.2 29.6 23.4 90 1.2 SW 6 7 3 4 1013.0 1009.9 0.0
28/07:00am 24.5 28.5 23.1 92 1.0 SW 7 9 4 5 1012.8 1009.7 0.0
28/06:30am 24.2 28.9 23.3 95 0.6 SW 4 7 2 4 1012.6 1009.5 0.0
28/06:00am 24.0 29.3 23.1 95 0.6 CALM 0 0 0 0 1012.1 1009.1 0.0
28/05:30am 23.7 29.0 23.0 96 0.5 CALM 0 0 0 0 1011.9 1008.8 0.0
28/05:00am 23.4 28.5 22.7 96 0.5 CALM 0 0 0 0 1011.5 1008.4 0.0
28/04:30am 23.4 28.5 22.7 96 0.5 CALM 0 0 0 0 1011.3 1008.2 0.0
28/04:00am 23.4 27.7 22.7 96 0.5 SW 4 7 2 4 1011.1 1008.0 0.0
28/03:30am 23.6 28.8 22.8 95 0.5 CALM 0 2 0 1 1010.8 1007.7 0.0
28/03:00am 23.6 27.6 22.8 95 0.5 WSW 6 7 3 4 1011.0 1007.9 0.0
28/02:30am 23.7 27.8 22.9 95 0.5 WNW 6 7 3 4 1011.2 1008.1 0.0
28/02:00am 23.7 26.7 22.7 94 0.7 WNW 11 15 6 8 1011.3 1008.2 0.0
28/01:30am 23.8 27.4 23.0 95 0.5 W 9 11 5 6 1011.2 1008.1 0.0
28/01:00am 24.0 28.3 23.3 96 0.5 WSW 6 7 3 4 1011.0 1007.9 0.0
28/12:30am 24.1 28.2 23.2 95 0.6 WSW 7 9 4 5 1011.0 1007.9 0.0
28/12:00am 24.0 27.9 23.0 94 0.7 W 7 9 4 5 1011.5 1008.4 0.0
 
Date/Time
WST
Temp
°C
App
Temp
°C
Dew
Point
°C
Rel
Hum
%
Delta-T
°C
Wind Press
QNH
hPa
Press
MSL
hPa
Rain since
9am
mm
Dir  Spd
km/h
Gust
km/h
Spd
kts
Gust
kts
27/11:30pm 24.1 29.3 22.9 93 0.8 CALM 0 0 0 0 1011.4 1008.3 0.0
27/11:00pm 24.1 27.9 22.7 92 1.0 WNW 7 11 4 6 1011.9 1008.8 0.0
27/10:30pm 24.0 27.6 22.4 91 1.1 W 7 9 4 5 1012.3 1009.3 0.0
27/10:00pm 24.2 28.1 23.0 93 0.8 WSW 7 9 4 5 1012.6 1009.5 0.0
27/09:30pm 24.4 28.5 23.2 93 0.8 W 7 9 4 5 1012.9 1009.8 0.0
27/09:00pm 24.6 29.0 23.4 93 0.8 SSW 6 7 3 4 1013.2 1010.1 0.0
27/08:30pm 24.3 28.0 23.3 94 0.7 SSE 9 17 5 9 1013.2 1010.1 0.0
27/08:00pm 24.0 26.7 22.8 93 0.8 SW 13 15 7 8 1012.8 1009.7 0.0
27/07:30pm 23.8 26.1 22.1 90 1.1 SW 13 17 7 9 1012.2 1009.2 0.0
27/07:00pm 23.9 26.4 22.5 92 1.0 SW 13 19 7 10 1011.8 1008.7 0.0
27/06:30pm 23.6 26.2 21.9 90 1.1 SW 11 15 6 8 1011.4 1008.3 0.0
27/06:00pm 23.6 26.5 21.7 89 1.3 WSW 9 11 5 6 1010.4 1007.3 0.0
27/05:30pm 24.3 26.9 22.0 87 1.6 S 11 17 6 9 1010.9 1007.8 0.0
27/05:00pm 28.0 28.8 20.6 64 5.0 S 17 43 9 23 1010.5 1007.4 0.0
27/04:59pm 28.7 30.4 21.0 63 5.2 SSW 13 43 7 23 1010.5 1007.4 0.0
27/04:30pm 30.1 33.4 22.5 63 5.2 WSW 9 11 5 6 1009.4 1006.3 0.0
27/04:00pm 29.8 33.4 23.0 67 4.7 WSW 9 13 5 7 1009.2 1006.1 0.0
27/03:30pm 29.6 32.7 22.8 67 4.7 W 11 13 6 7 1009.5 1006.4 0.0
27/03:00pm 29.4 33.0 23.1 69 4.4 W 9 11 5 6 1009.3 1006.2 0.0
27/02:30pm 29.2 33.0 23.4 71 4.0 WNW 9 15 5 8 1009.6 1006.5 0.0
27/02:00pm 30.4 33.6 22.3 62 5.6 SW 9 15 5 8 1010.0 1006.9 0.0
27/01:30pm 30.5 33.4 22.4 62 5.6 SW 11 17 6 9 1010.3 1007.2 0.0
27/01:00pm 30.2 33.2 22.6 63 5.3 SW 11 15 6 8 1010.7 1007.6 0.0
27/12:30pm 29.4 32.3 23.1 69 4.4 WSW 13 20 7 11 1011.2 1008.1 0.0
27/12:00pm 28.9 30.2 22.4 68 4.5 WSW 19 24 10 13 1011.7 1008.6 0.0
27/11:30am 29.6 32.2 22.6 66 4.8 WSW 13 22 7 12 1012.1 1009.1 0.0
27/11:00am 30.6 34.1 22.2 61 5.8 WNW 7 15 4 8 1012.3 1009.3 0.0
27/10:30am 29.3 32.2 21.8 64 5.1 NW 9 15 5 8 1013.1 1010.0 0.0
27/10:00am 29.4 32.5 22.1 65 5.0 WNW 9 15 5 8 1013.5 1010.4 0.0
27/09:30am 27.8 31.4 22.3 72 3.8 WSW 7 13 4 7 1013.8 1010.7 0.0
27/09:00am 26.4 29.7 21.8 76 3.1 WNW 7 11 4 6 1014.2 1011.1 0.0
27/08:30am 25.6 29.6 22.7 84 2.0 NW 6 9 3 5 1014.5 1011.5 0.0
27/08:00am 23.5 25.3 21.9 91 1.1 N 15 24 8 13 1014.7 1011.7 0.0
27/07:30am 24.6 27.8 23.0 91 1.1 N 11 17 6 9 1014.7 1011.7 0.0
27/07:00am 25.1 27.4 22.0 83 2.1 NNW 13 26 7 14 1014.0 1010.9 0.0
27/06:30am 25.4 27.6 21.9 81 2.4 N 13 19 7 10 1013.8 1010.7 0.0
27/06:00am 25.6 28.9 22.5 83 2.1 NNW 9 11 5 6 1013.6 1010.5 0.0
27/05:30am 25.6 29.0 22.7 84 2.0 NNE 9 11 5 6 1012.8 1009.7 0.0
27/05:00am 25.9 29.5 23.0 84 2.0 N 9 11 5 6 1012.4 1009.4 0.0
27/04:30am 26.4 30.9 22.9 81 2.4 NNW 4 6 2 3 1012.0 1009.0 0.0
27/04:00am 26.3 30.8 23.0 82 2.3 NNW 4 6 2 3 1012.0 1009.0 0.0
27/03:30am 26.0 31.4 23.3 85 1.9 CALM 0 0 0 0 1011.8 1008.7 0.0
27/03:00am 26.1 31.7 23.6 86 1.7 CALM 0 0 0 0 1011.5 1008.4 0.0
27/02:30am 25.8 29.6 22.7 83 2.1 W 7 9 4 5 1011.2 1008.1 0.0
27/02:00am 25.9 31.2 23.0 84 2.0 CALM 0 0 0 0 1011.2 1008.1 0.0
27/01:30am 26.5 32.0 23.4 83 2.1 CALM 0 0 0 0 1011.1 1008.0 0.0
27/01:00am 26.4 31.7 23.1 82 2.3 CALM 0 0 0 0 1011.4 1008.3 0.0
27/12:30am 26.7 32.1 23.2 81 2.4 CALM 0 4 0 2 1011.8 1008.7 0.0
27/12:00am 26.7 30.8 23.2 81 2.4 ENE 7 7 4 4 1012.0 1009.0 0.0
 
Date/Time
WST
Temp
°C
App
Temp
°C
Dew
Point
°C
Rel
Hum
%
Delta-T
°C
Wind Press
QNH
hPa
Press
MSL
hPa
Rain since
9am
mm
Dir  Spd
km/h
Gust
km/h
Spd
kts
Gust
kts
26/11:30pm 26.4 30.3 22.5 79 2.7 WSW 6 7 3 4 1012.1 1009.1 0.0
26/11:00pm 27.0 32.1 22.6 77 3.0 CALM 0 0 0 0 1012.3 1009.3 0.0
26/10:30pm 27.3 32.5 22.9 77 3.0 CALM 0 0 0 0 1012.6 1009.5 0.0
26/10:00pm 27.4 31.3 22.6 75 3.3 ENE 6 7 3 4 1012.4 1009.4 0.0
26/09:30pm 27.1 31.0 22.5 76 3.2 W 6 6 3 3 1012.6 1009.5 0.0
26/09:00pm 26.8 30.1 21.8 74 3.4 W 7 7 4 4 1012.4 1009.4 0.0
26/08:30pm 27.2 30.5 21.5 71 3.9 NNW 6 6 3 3 1012.0 1009.0 0.0
26/08:00pm 28.2 31.8 21.2 65 4.7 ENE 4 7 2 4 1011.6 1008.5 0.0
26/07:30pm 28.8 31.2 20.8 62 5.4 ENE 9 11 5 6 1011.0 1007.9 0.0

Other Formats:

Comma delimited format used in spreadsheet applications
http://www.bom.gov.au/fwo/IDW60801/IDW60801.94212.axf

JavaScript Object Notation format (JSON) in row-major order
http://www.bom.gov.au/fwo/IDW60801/IDW60801.94212.json